LAN180 SCEL-SCJO
Flight info
| Callsign | LAN180 |
|---|---|
| Flight time | 1h 16m |
| Altitude | 37000 |
| Route | ANGOD6C ANGOD UQ803 ERUKA ERUKA2D |
| Aircraft | A320/M-SDE3FGHIRWY/LB1 |
Departure
| Time | 2026-04-14 21:25 |
|---|---|
| Airport | Comodoro Arturo Merino Benítez International Airport (SCEL) |
Arrival
| Time | 2026-04-14 22:41 |
|---|---|
| Airport | Cañal Bajo Carlos Hott Siebert Airport (SCJO) |
| Time | Latitude | Longitude | Altitude | Speed | Heading |
|---|---|---|---|---|---|
| 2026-04-14 20:47 | -33.39719 | -70.79069 | 1565 ft | 0 kts | 1° |
| 2026-04-14 20:53 | -33.39720 | -70.79069 | 1565 ft | 0 kts | 1° |
| 2026-04-14 21:07 | -33.39730 | -70.79069 | 1565 ft | 3 kts | 360° |
| 2026-04-14 21:08 | -33.39750 | -70.79069 | 1565 ft | 3 kts | 360° |
| 2026-04-14 21:08 | -33.39771 | -70.79069 | 1565 ft | 3 kts | 2° |
| 2026-04-14 21:08 | -33.39787 | -70.79071 | 1565 ft | 1 kts | 28° |
| 2026-04-14 21:08 | -33.39795 | -70.79077 | 1565 ft | 1 kts | 72° |
| 2026-04-14 21:09 | -33.39797 | -70.79087 | 1565 ft | 1 kts | 86° |
| 2026-04-14 21:09 | -33.39797 | -70.79095 | 1564 ft | 0 kts | 87° |
| 2026-04-14 21:11 | -33.39797 | -70.79083 | 1564 ft | 6 kts | 87° |
| 2026-04-14 21:11 | -33.39794 | -70.78986 | 1564 ft | 14 kts | 88° |
| 2026-04-14 21:11 | -33.39770 | -70.78881 | 1564 ft | 12 kts | 18° |
| 2026-04-14 21:12 | -33.39693 | -70.78882 | 1564 ft | 10 kts | 357° |
| 2026-04-14 21:12 | -33.39602 | -70.78886 | 1564 ft | 17 kts | 358° |
| 2026-04-14 21:12 | -33.39483 | -70.78895 | 1564 ft | 16 kts | 353° |
| 2026-04-14 21:12 | -33.39375 | -70.78900 | 1564 ft | 15 kts | 359° |
| 2026-04-14 21:13 | -33.39276 | -70.78903 | 1564 ft | 14 kts | 357° |
| 2026-04-14 21:13 | -33.39186 | -70.78908 | 1564 ft | 12 kts | 358° |
| 2026-04-14 21:13 | -33.39104 | -70.78912 | 1564 ft | 11 kts | 358° |
| 2026-04-14 21:14 | -33.38955 | -70.78921 | 1564 ft | 14 kts | 358° |
| 2026-04-14 21:14 | -33.38838 | -70.78926 | 1564 ft | 17 kts | 358° |
| 2026-04-14 21:14 | -33.38726 | -70.78932 | 1564 ft | 15 kts | 358° |
| 2026-04-14 21:14 | -33.38626 | -70.78937 | 1564 ft | 13 kts | 358° |
| 2026-04-14 21:15 | -33.38537 | -70.78941 | 1564 ft | 12 kts | 357° |
| 2026-04-14 21:15 | -33.38457 | -70.78946 | 1564 ft | 11 kts | 357° |
| 2026-04-14 21:15 | -33.38388 | -70.78950 | 1564 ft | 9 kts | 357° |
| 2026-04-14 21:15 | -33.38356 | -70.78999 | 1564 ft | 8 kts | 274° |
| 2026-04-14 21:16 | -33.38358 | -70.79085 | 1564 ft | 9 kts | 267° |
| 2026-04-14 21:16 | -33.38361 | -70.79156 | 1564 ft | 8 kts | 267° |
| 2026-04-14 21:16 | -33.38364 | -70.79240 | 1564 ft | 12 kts | 267° |
| 2026-04-14 21:16 | -33.38368 | -70.79337 | 1564 ft | 11 kts | 267° |
| 2026-04-14 21:17 | -33.38371 | -70.79421 | 1564 ft | 10 kts | 267° |
| 2026-04-14 21:17 | -33.38376 | -70.79531 | 1564 ft | 14 kts | 267° |
| 2026-04-14 21:17 | -33.38380 | -70.79647 | 1564 ft | 14 kts | 267° |
| 2026-04-14 21:17 | -33.38384 | -70.79758 | 1565 ft | 13 kts | 267° |
| 2026-04-14 21:18 | -33.38388 | -70.79857 | 1565 ft | 11 kts | 267° |
| 2026-04-14 21:18 | -33.38391 | -70.79943 | 1565 ft | 10 kts | 267° |
| 2026-04-14 21:18 | -33.38395 | -70.80039 | 1565 ft | 17 kts | 267° |
| 2026-04-14 21:18 | -33.38351 | -70.80110 | 1566 ft | 10 kts | 357° |
| 2026-04-14 21:19 | -33.38274 | -70.80112 | 1566 ft | 15 kts | 1° |
| 2026-04-14 21:19 | -33.38172 | -70.80119 | 1566 ft | 14 kts | 357° |
| 2026-04-14 21:19 | -33.38079 | -70.80125 | 1566 ft | 13 kts | 356° |
| 2026-04-14 21:19 | -33.37994 | -70.80130 | 1566 ft | 12 kts | 358° |
| 2026-04-14 21:20 | -33.37916 | -70.80133 | 1566 ft | 11 kts | 358° |
| 2026-04-14 21:20 | -33.37828 | -70.80137 | 1566 ft | 16 kts | 357° |
| 2026-04-14 21:20 | -33.37715 | -70.80143 | 1566 ft | 16 kts | 359° |
| 2026-04-14 21:20 | -33.37611 | -70.80146 | 1567 ft | 14 kts | 357° |
| 2026-04-14 21:21 | -33.37517 | -70.80152 | 1566 ft | 13 kts | 356° |
| 2026-04-14 21:21 | -33.37430 | -70.80160 | 1567 ft | 12 kts | 356° |
| 2026-04-14 21:21 | -33.37354 | -70.80164 | 1567 ft | 10 kts | 358° |
| 2026-04-14 21:21 | -33.37286 | -70.80167 | 1567 ft | 10 kts | 358° |
| 2026-04-14 21:22 | -33.37167 | -70.80173 | 1567 ft | 16 kts | 355° |
| 2026-04-14 21:22 | -33.37105 | -70.80241 | 1569 ft | 1 kts | 277° |
| 2026-04-14 21:24 | -33.37104 | -70.80280 | 1571 ft | 8 kts | 268° |
| 2026-04-14 21:24 | -33.37132 | -70.80350 | 1574 ft | 11 kts | 224° |
| 2026-04-14 21:24 | -33.37200 | -70.80373 | 1573 ft | 0 kts | 178° |
| 2026-04-14 21:25 | -33.37310 | -70.80368 | 1573 ft | 52 kts | 178° |
| 2026-04-14 21:25 | -33.37914 | -70.80334 | 1573 ft | 120 kts | 178° |
| 2026-04-14 21:25 | -33.38926 | -70.80277 | 1675 ft | 163 kts | 179° |
| 2026-04-14 21:25 | -33.40095 | -70.80217 | 2326 ft | 172 kts | 178° |
| 2026-04-14 21:26 | -33.41309 | -70.80149 | 3084 ft | 177 kts | 177° |
| 2026-04-14 21:26 | -33.42538 | -70.80074 | 3850 ft | 178 kts | 178° |
| 2026-04-14 21:26 | -33.43836 | -70.80005 | 4278 ft | 197 kts | 178° |
| 2026-04-14 21:26 | -33.45290 | -70.79932 | 4615 ft | 222 kts | 177° |
| 2026-04-14 21:27 | -33.46911 | -70.79849 | 5072 ft | 246 kts | 177° |
| 2026-04-14 21:27 | -33.48685 | -70.79754 | 5572 ft | 269 kts | 177° |
| 2026-04-14 21:27 | -33.50619 | -70.79649 | 6382 ft | 280 kts | 177° |
| 2026-04-14 21:27 | -33.52562 | -70.79544 | 7240 ft | 286 kts | 177° |
| 2026-04-14 21:28 | -33.54564 | -70.79436 | 8147 ft | 290 kts | 177° |
| 2026-04-14 21:28 | -33.56610 | -70.79327 | 8760 ft | 296 kts | 177° |
| 2026-04-14 21:28 | -33.58670 | -70.79251 | 8952 ft | 297 kts | 183° |
| 2026-04-14 21:28 | -33.60703 | -70.79733 | 9260 ft | 302 kts | 195° |
| 2026-04-14 21:29 | -33.62729 | -70.80371 | 10267 ft | 302 kts | 195° |
| 2026-04-14 21:29 | -33.64768 | -70.81004 | 11162 ft | 304 kts | 195° |
| 2026-04-14 21:29 | -33.66827 | -70.81644 | 12012 ft | 310 kts | 195° |
| 2026-04-14 21:29 | -33.68987 | -70.82318 | 12388 ft | 332 kts | 195° |
| 2026-04-14 21:30 | -33.71267 | -70.83029 | 13057 ft | 342 kts | 195° |
| 2026-04-14 21:30 | -33.73589 | -70.83749 | 13913 ft | 346 kts | 196° |
| 2026-04-14 21:30 | -33.75931 | -70.84475 | 14680 ft | 350 kts | 196° |
| 2026-04-14 21:30 | -33.78302 | -70.85211 | 15441 ft | 353 kts | 196° |
| 2026-04-14 21:31 | -33.80686 | -70.85955 | 16198 ft | 357 kts | 196° |
| 2026-04-14 21:31 | -33.83106 | -70.86711 | 16951 ft | 360 kts | 196° |
| 2026-04-14 21:31 | -33.85546 | -70.87472 | 17675 ft | 364 kts | 197° |
| 2026-04-14 21:31 | -33.88010 | -70.88243 | 18392 ft | 368 kts | 197° |
| 2026-04-14 21:32 | -33.90502 | -70.89022 | 19026 ft | 372 kts | 197° |
| 2026-04-14 21:32 | -33.93015 | -70.89806 | 19661 ft | 375 kts | 197° |
| 2026-04-14 21:32 | -33.95549 | -70.90596 | 20287 ft | 378 kts | 197° |
| 2026-04-14 21:32 | -33.98106 | -70.91394 | 20913 ft | 381 kts | 198° |
| 2026-04-14 21:33 | -34.00685 | -70.92201 | 21567 ft | 384 kts | 198° |
| 2026-04-14 21:33 | -34.03283 | -70.92996 | 22172 ft | 387 kts | 197° |
| 2026-04-14 21:33 | -34.05878 | -70.93731 | 22788 ft | 390 kts | 197° |
| 2026-04-14 21:33 | -34.08540 | -70.94444 | 23411 ft | 394 kts | 196° |
| 2026-04-14 21:34 | -34.11229 | -70.95149 | 23991 ft | 397 kts | 197° |
| 2026-04-14 21:34 | -34.13940 | -70.95862 | 24491 ft | 401 kts | 197° |
| 2026-04-14 21:34 | -34.16675 | -70.96591 | 24983 ft | 404 kts | 197° |
| 2026-04-14 21:34 | -34.19428 | -70.97331 | 25457 ft | 408 kts | 197° |
| 2026-04-14 21:35 | -34.22209 | -70.98085 | 25940 ft | 411 kts | 197° |
| 2026-04-14 21:35 | -34.25011 | -70.98851 | 26397 ft | 414 kts | 198° |
| 2026-04-14 21:35 | -34.27836 | -70.99628 | 26853 ft | 418 kts | 198° |
| 2026-04-14 21:35 | -34.30681 | -71.00409 | 27298 ft | 421 kts | 198° |
| 2026-04-14 21:36 | -34.33555 | -71.01196 | 27747 ft | 424 kts | 198° |
| 2026-04-14 21:36 | -34.36442 | -71.01986 | 28176 ft | 428 kts | 198° |
| 2026-04-14 21:36 | -34.39360 | -71.02784 | 28618 ft | 431 kts | 198° |
| 2026-04-14 21:36 | -34.42299 | -71.03588 | 29042 ft | 434 kts | 198° |
| 2026-04-14 21:37 | -34.45256 | -71.04398 | 29465 ft | 438 kts | 198° |
| 2026-04-14 21:37 | -34.48238 | -71.05213 | 29886 ft | 441 kts | 198° |
| 2026-04-14 21:37 | -34.51204 | -71.06024 | 30285 ft | 444 kts | 198° |
| 2026-04-14 21:37 | -34.54228 | -71.06853 | 30641 ft | 447 kts | 198° |
| 2026-04-14 21:38 | -34.57263 | -71.07688 | 30983 ft | 448 kts | 199° |
| 2026-04-14 21:38 | -34.60312 | -71.08526 | 31335 ft | 450 kts | 199° |
| 2026-04-14 21:38 | -34.63379 | -71.09370 | 31687 ft | 452 kts | 199° |
| 2026-04-14 21:38 | -34.66452 | -71.10214 | 32100 ft | 452 kts | 199° |
| 2026-04-14 21:39 | -34.69512 | -71.11051 | 32618 ft | 450 kts | 199° |
| 2026-04-14 21:39 | -34.72568 | -71.11890 | 33109 ft | 448 kts | 199° |
| 2026-04-14 21:39 | -34.75613 | -71.12700 | 33615 ft | 448 kts | 198° |
| 2026-04-14 21:39 | -34.78658 | -71.13459 | 34102 ft | 447 kts | 197° |
| 2026-04-14 21:40 | -34.81711 | -71.14186 | 34522 ft | 446 kts | 197° |
| 2026-04-14 21:40 | -34.83725 | -71.14659 | 34803 ft | 445 kts | 197° |
| 2026-04-14 21:40 | -34.87784 | -71.15614 | 35365 ft | 443 kts | 197° |
| 2026-04-14 21:40 | -34.89787 | -71.16090 | 35623 ft | 442 kts | 197° |
| 2026-04-14 21:41 | -34.92800 | -71.16812 | 36023 ft | 441 kts | 197° |
| 2026-04-14 21:41 | -34.95802 | -71.17538 | 36397 ft | 440 kts | 197° |
| 2026-04-14 21:41 | -34.98796 | -71.18269 | 36745 ft | 439 kts | 197° |
| 2026-04-14 21:41 | -35.01790 | -71.19004 | 37076 ft | 439 kts | 197° |
| 2026-04-14 21:42 | -35.07752 | -71.20464 | 37176 ft | 434 kts | 197° |
| 2026-04-14 21:42 | -35.13668 | -71.21907 | 37178 ft | 433 kts | 196° |
| 2026-04-14 21:43 | -35.19570 | -71.23356 | 37179 ft | 432 kts | 196° |
| 2026-04-14 21:43 | -35.25470 | -71.24804 | 37178 ft | 432 kts | 196° |
| 2026-04-14 21:44 | -35.31364 | -71.26255 | 37184 ft | 432 kts | 196° |
| 2026-04-14 21:44 | -35.37259 | -71.27698 | 37187 ft | 432 kts | 196° |
| 2026-04-14 21:45 | -35.43152 | -71.29143 | 37188 ft | 432 kts | 195° |
| 2026-04-14 21:45 | -35.49038 | -71.30604 | 37189 ft | 431 kts | 195° |
| 2026-04-14 21:46 | -35.54921 | -71.32063 | 37195 ft | 431 kts | 195° |
| 2026-04-14 21:46 | -35.60802 | -71.33514 | 37192 ft | 431 kts | 195° |
| 2026-04-14 21:47 | -35.66685 | -71.34971 | 37193 ft | 431 kts | 195° |
| 2026-04-14 21:47 | -35.72566 | -71.36437 | 37197 ft | 431 kts | 195° |
| 2026-04-14 21:48 | -35.78437 | -71.37904 | 37190 ft | 431 kts | 195° |
| 2026-04-14 21:48 | -35.84308 | -71.39373 | 37188 ft | 431 kts | 195° |
| 2026-04-14 21:49 | -35.90184 | -71.40834 | 37191 ft | 430 kts | 195° |
| 2026-04-14 21:49 | -35.96013 | -71.42295 | 37192 ft | 430 kts | 195° |
| 2026-04-14 21:50 | -36.01882 | -71.43768 | 37192 ft | 430 kts | 195° |
| 2026-04-14 21:50 | -36.07751 | -71.45234 | 37194 ft | 430 kts | 195° |
| 2026-04-14 21:51 | -36.13624 | -71.46702 | 37196 ft | 430 kts | 196° |
| 2026-04-14 21:51 | -36.19492 | -71.48185 | 37200 ft | 430 kts | 196° |
| 2026-04-14 21:52 | -36.25365 | -71.49668 | 37190 ft | 430 kts | 196° |
| 2026-04-14 21:52 | -36.31231 | -71.51153 | 37200 ft | 430 kts | 196° |
| 2026-04-14 21:53 | -36.37104 | -71.52642 | 37186 ft | 430 kts | 196° |
| 2026-04-14 21:53 | -36.42967 | -71.54125 | 37187 ft | 430 kts | 196° |
| 2026-04-14 21:54 | -36.48788 | -71.55602 | 37187 ft | 429 kts | 196° |
| 2026-04-14 21:54 | -36.54639 | -71.57084 | 37186 ft | 429 kts | 196° |
| 2026-04-14 21:55 | -36.60493 | -71.58570 | 37191 ft | 429 kts | 197° |
| 2026-04-14 21:55 | -36.66348 | -71.60069 | 37195 ft | 429 kts | 197° |
| 2026-04-14 21:56 | -36.72201 | -71.61555 | 37192 ft | 429 kts | 197° |
| 2026-04-14 21:56 | -36.78056 | -71.63049 | 37195 ft | 429 kts | 197° |
| 2026-04-14 21:57 | -36.83905 | -71.64546 | 37191 ft | 429 kts | 197° |
| 2026-04-14 21:57 | -36.89746 | -71.66051 | 37192 ft | 428 kts | 197° |
| 2026-04-14 21:58 | -36.95580 | -71.67548 | 37196 ft | 428 kts | 197° |
| 2026-04-14 21:58 | -37.01415 | -71.69046 | 37196 ft | 428 kts | 197° |
| 2026-04-14 21:59 | -37.07254 | -71.70544 | 37196 ft | 428 kts | 197° |
| 2026-04-14 21:59 | -37.13085 | -71.72055 | 37197 ft | 427 kts | 197° |
| 2026-04-14 22:00 | -37.18867 | -71.73556 | 37199 ft | 427 kts | 197° |
| 2026-04-14 22:00 | -37.24692 | -71.75055 | 37203 ft | 427 kts | 197° |
| 2026-04-14 22:01 | -37.30547 | -71.76570 | 37202 ft | 427 kts | 197° |
| 2026-04-14 22:01 | -37.36323 | -71.78073 | 37205 ft | 427 kts | 197° |
| 2026-04-14 22:02 | -37.42141 | -71.79590 | 37207 ft | 427 kts | 197° |
| 2026-04-14 22:02 | -37.47963 | -71.81113 | 37214 ft | 427 kts | 197° |
| 2026-04-14 22:03 | -37.53775 | -71.82625 | 37217 ft | 426 kts | 197° |
| 2026-04-14 22:03 | -37.59582 | -71.84140 | 37219 ft | 426 kts | 197° |
| 2026-04-14 22:04 | -37.65384 | -71.85655 | 37231 ft | 426 kts | 197° |
| 2026-04-14 22:04 | -37.71190 | -71.87182 | 37231 ft | 426 kts | 197° |
| 2026-04-14 22:05 | -37.76952 | -71.88839 | 37227 ft | 424 kts | 199° |
| 2026-04-14 22:05 | -37.82627 | -71.90663 | 37229 ft | 423 kts | 199° |
| 2026-04-14 22:06 | -37.88329 | -71.92502 | 37224 ft | 423 kts | 199° |
| 2026-04-14 22:06 | -37.94043 | -71.94292 | 37221 ft | 422 kts | 199° |
| 2026-04-14 22:07 | -37.99747 | -71.96063 | 37221 ft | 422 kts | 199° |
| 2026-04-14 22:07 | -38.05450 | -71.97841 | 37211 ft | 422 kts | 199° |
| 2026-04-14 22:08 | -38.11147 | -71.99631 | 37209 ft | 422 kts | 199° |
| 2026-04-14 22:08 | -38.16850 | -72.01432 | 37207 ft | 422 kts | 199° |
| 2026-04-14 22:09 | -38.22545 | -72.03225 | 37201 ft | 422 kts | 199° |
| 2026-04-14 22:09 | -38.28247 | -72.05017 | 37196 ft | 422 kts | 199° |
| 2026-04-14 22:10 | -38.33937 | -72.06817 | 37196 ft | 421 kts | 199° |
| 2026-04-14 22:10 | -38.39601 | -72.08617 | 37198 ft | 421 kts | 199° |
| 2026-04-14 22:11 | -38.45291 | -72.10431 | 37199 ft | 421 kts | 199° |
| 2026-04-14 22:11 | -38.50981 | -72.12231 | 37198 ft | 421 kts | 199° |
| 2026-04-14 22:12 | -38.56660 | -72.14033 | 37184 ft | 420 kts | 199° |
| 2026-04-14 22:12 | -38.62336 | -72.15844 | 37194 ft | 420 kts | 199° |
| 2026-04-14 22:13 | -38.68002 | -72.17656 | 37188 ft | 419 kts | 199° |
| 2026-04-14 22:13 | -38.73657 | -72.19469 | 37193 ft | 418 kts | 199° |
| 2026-04-14 22:14 | -38.79265 | -72.21267 | 37190 ft | 417 kts | 199° |
| 2026-04-14 22:14 | -38.84901 | -72.23070 | 37190 ft | 417 kts | 199° |
| 2026-04-14 22:15 | -38.90515 | -72.24877 | 37192 ft | 415 kts | 199° |
| 2026-04-14 22:15 | -38.96122 | -72.26684 | 37187 ft | 415 kts | 199° |
| 2026-04-14 22:16 | -39.01716 | -72.28486 | 37189 ft | 414 kts | 199° |
| 2026-04-14 22:16 | -39.07311 | -72.30288 | 37189 ft | 414 kts | 199° |
| 2026-04-14 22:17 | -39.12890 | -72.32097 | 37184 ft | 413 kts | 199° |
| 2026-04-14 22:17 | -39.18503 | -72.33924 | 36723 ft | 420 kts | 199° |
| 2026-04-14 22:18 | -39.21329 | -72.34839 | 36210 ft | 417 kts | 199° |
| 2026-04-14 22:18 | -39.24091 | -72.35728 | 35737 ft | 413 kts | 199° |
| 2026-04-14 22:18 | -39.26867 | -72.36620 | 35240 ft | 409 kts | 199° |
| 2026-04-14 22:18 | -39.29621 | -72.37507 | 34741 ft | 407 kts | 199° |
| 2026-04-14 22:19 | -39.32360 | -72.38393 | 34243 ft | 404 kts | 199° |
| 2026-04-14 22:19 | -39.37770 | -72.40157 | 33219 ft | 397 kts | 199° |
| 2026-04-14 22:19 | -39.40435 | -72.41028 | 32735 ft | 393 kts | 199° |
| 2026-04-14 22:20 | -39.43072 | -72.41890 | 32259 ft | 389 kts | 199° |
| 2026-04-14 22:20 | -39.45685 | -72.42743 | 31790 ft | 385 kts | 199° |
| 2026-04-14 22:20 | -39.48272 | -72.43587 | 31335 ft | 381 kts | 199° |
| 2026-04-14 22:20 | -39.50839 | -72.44427 | 30887 ft | 378 kts | 199° |
| 2026-04-14 22:21 | -39.53373 | -72.45260 | 30444 ft | 374 kts | 199° |
| 2026-04-14 22:21 | -39.55886 | -72.46085 | 29971 ft | 371 kts | 199° |
| 2026-04-14 22:21 | -39.58373 | -72.46896 | 29547 ft | 366 kts | 199° |
| 2026-04-14 22:21 | -39.60822 | -72.47696 | 29144 ft | 360 kts | 200° |
| 2026-04-14 22:22 | -39.63231 | -72.48487 | 28741 ft | 355 kts | 200° |
| 2026-04-14 22:22 | -39.65608 | -72.49269 | 28350 ft | 350 kts | 200° |
| 2026-04-14 22:22 | -39.67952 | -72.50043 | 27966 ft | 346 kts | 200° |
| 2026-04-14 22:22 | -39.70275 | -72.50809 | 27566 ft | 342 kts | 200° |
| 2026-04-14 22:23 | -39.72533 | -72.51553 | 27187 ft | 338 kts | 200° |
| 2026-04-14 22:23 | -39.74804 | -72.52302 | 26769 ft | 336 kts | 200° |
| 2026-04-14 22:23 | -39.77069 | -72.53037 | 26317 ft | 335 kts | 200° |
| 2026-04-14 22:23 | -39.79329 | -72.53747 | 25860 ft | 334 kts | 200° |
| 2026-04-14 22:24 | -39.81596 | -72.54446 | 25402 ft | 334 kts | 200° |
| 2026-04-14 22:24 | -39.83856 | -72.55140 | 24941 ft | 334 kts | 200° |
| 2026-04-14 22:24 | -39.86126 | -72.55837 | 24457 ft | 335 kts | 200° |
| 2026-04-14 22:24 | -39.88398 | -72.56534 | 23971 ft | 336 kts | 200° |
| 2026-04-14 22:25 | -39.90673 | -72.57239 | 23445 ft | 337 kts | 200° |
| 2026-04-14 22:25 | -39.92954 | -72.57951 | 22937 ft | 336 kts | 200° |
| 2026-04-14 22:25 | -39.95220 | -72.58661 | 22472 ft | 335 kts | 200° |
| 2026-04-14 22:25 | -39.97482 | -72.59367 | 21996 ft | 334 kts | 200° |
| 2026-04-14 22:26 | -39.99741 | -72.60070 | 21532 ft | 333 kts | 200° |
| 2026-04-14 22:26 | -40.01995 | -72.60772 | 21077 ft | 333 kts | 200° |
| 2026-04-14 22:26 | -40.04248 | -72.61475 | 20621 ft | 332 kts | 200° |
| 2026-04-14 22:26 | -40.06496 | -72.62179 | 20160 ft | 332 kts | 200° |
| 2026-04-14 22:27 | -40.07987 | -72.62646 | 19853 ft | 332 kts | 200° |
| 2026-04-14 22:27 | -40.10238 | -72.63352 | 19408 ft | 333 kts | 200° |
| 2026-04-14 22:27 | -40.12493 | -72.64056 | 18955 ft | 333 kts | 200° |
| 2026-04-14 22:27 | -40.15512 | -72.65000 | 18344 ft | 334 kts | 200° |
| 2026-04-14 22:28 | -40.17007 | -72.65470 | 18003 ft | 333 kts | 200° |
| 2026-04-14 22:28 | -40.19220 | -72.66163 | 17566 ft | 322 kts | 200° |
| 2026-04-14 22:28 | -40.21399 | -72.66849 | 17130 ft | 322 kts | 201° |
| 2026-04-14 22:28 | -40.23578 | -72.67537 | 16720 ft | 322 kts | 201° |
| 2026-04-14 22:29 | -40.25755 | -72.68225 | 16302 ft | 322 kts | 201° |
| 2026-04-14 22:29 | -40.27936 | -72.68912 | 15888 ft | 323 kts | 201° |
| 2026-04-14 22:29 | -40.30121 | -72.69599 | 15490 ft | 323 kts | 201° |
| 2026-04-14 22:29 | -40.32283 | -72.70275 | 15082 ft | 317 kts | 201° |
| 2026-04-14 22:30 | -40.34430 | -72.70949 | 14673 ft | 318 kts | 201° |
| 2026-04-14 22:30 | -40.36584 | -72.71628 | 14275 ft | 319 kts | 201° |
| 2026-04-14 22:30 | -40.38345 | -72.72186 | 13943 ft | 320 kts | 201° |
| 2026-04-14 22:30 | -40.40515 | -72.72875 | 13500 ft | 321 kts | 201° |
| 2026-04-14 22:31 | -40.42658 | -72.73555 | 13097 ft | 321 kts | 201° |
| 2026-04-14 22:31 | -40.44828 | -72.74241 | 12687 ft | 320 kts | 200° |
| 2026-04-14 22:31 | -40.46992 | -72.74922 | 12269 ft | 320 kts | 200° |
| 2026-04-14 22:31 | -40.49148 | -72.75603 | 11857 ft | 319 kts | 200° |
| 2026-04-14 22:32 | -40.51304 | -72.76286 | 11432 ft | 318 kts | 200° |
| 2026-04-14 22:32 | -40.53451 | -72.76967 | 11009 ft | 317 kts | 200° |
| 2026-04-14 22:32 | -40.55595 | -72.77648 | 10578 ft | 317 kts | 200° |
| 2026-04-14 22:32 | -40.57740 | -72.78333 | 10044 ft | 318 kts | 200° |
| 2026-04-14 22:33 | -40.59853 | -72.79001 | 9560 ft | 305 kts | 199° |
| 2026-04-14 22:33 | -40.61874 | -72.79636 | 9141 ft | 291 kts | 199° |
| 2026-04-14 22:33 | -40.63795 | -72.80239 | 8744 ft | 278 kts | 199° |
| 2026-04-14 22:33 | -40.65643 | -72.80824 | 8356 ft | 267 kts | 199° |
| 2026-04-14 22:34 | -40.67411 | -72.81386 | 7977 ft | 257 kts | 199° |
| 2026-04-14 22:34 | -40.69123 | -72.81929 | 7616 ft | 248 kts | 199° |
| 2026-04-14 22:34 | -40.70778 | -72.82457 | 7259 ft | 241 kts | 199° |
| 2026-04-14 22:34 | -40.72382 | -72.83007 | 6911 ft | 234 kts | 206° |
| 2026-04-14 22:35 | -40.73774 | -72.84001 | 6580 ft | 225 kts | 224° |
| 2026-04-14 22:35 | -40.74850 | -72.85471 | 6209 ft | 222 kts | 242° |
| 2026-04-14 22:35 | -40.75568 | -72.87256 | 5842 ft | 220 kts | 251° |
| 2026-04-14 22:35 | -40.76200 | -72.89072 | 5482 ft | 216 kts | 251° |
| 2026-04-14 22:36 | -40.76825 | -72.90849 | 5128 ft | 212 kts | 251° |
| 2026-04-14 22:36 | -40.77438 | -72.92601 | 4786 ft | 208 kts | 253° |
| 2026-04-14 22:36 | -40.77665 | -72.94399 | 4434 ft | 193 kts | 283° |
| 2026-04-14 22:36 | -40.77187 | -72.95944 | 4114 ft | 175 kts | 310° |
| 2026-04-14 22:37 | -40.76288 | -72.96897 | 3830 ft | 160 kts | 334° |
| 2026-04-14 22:37 | -40.75305 | -72.97488 | 3561 ft | 151 kts | 335° |
| 2026-04-14 22:37 | -40.74386 | -72.98044 | 3315 ft | 139 kts | 335° |
| 2026-04-14 22:37 | -40.73531 | -72.98562 | 3058 ft | 133 kts | 336° |
| 2026-04-14 22:38 | -40.72700 | -72.99067 | 2838 ft | 130 kts | 336° |
| 2026-04-14 22:38 | -40.71883 | -72.99563 | 2609 ft | 129 kts | 336° |
| 2026-04-14 22:38 | -40.71068 | -73.00056 | 2370 ft | 128 kts | 335° |
| 2026-04-14 22:38 | -40.70263 | -73.00542 | 2151 ft | 127 kts | 336° |
| 2026-04-14 22:39 | -40.69462 | -73.01025 | 1934 ft | 131 kts | 335° |
| 2026-04-14 22:39 | -40.68629 | -73.01520 | 1716 ft | 131 kts | 335° |
| 2026-04-14 22:39 | -40.67811 | -73.02004 | 1590 ft | 129 kts | 335° |
| 2026-04-14 22:39 | -40.66987 | -73.02505 | 1355 ft | 132 kts | 335° |
| 2026-04-14 22:40 | -40.66156 | -73.03025 | 1193 ft | 132 kts | 335° |
| 2026-04-14 22:40 | -40.65308 | -73.03542 | 1000 ft | 137 kts | 336° |
| 2026-04-14 22:40 | -40.64434 | -73.04053 | 796 ft | 138 kts | 334° |
| 2026-04-14 22:40 | -40.63560 | -73.04589 | 608 ft | 138 kts | 334° |
| 2026-04-14 22:41 | -40.62688 | -73.05119 | 411 ft | 139 kts | 334° |
| 2026-04-14 22:41 | -40.61812 | -73.05652 | 235 ft | 139 kts | 334° |
| 2026-04-14 22:41 | -40.61022 | -73.06122 | 215 ft | 97 kts | 335° |
| 2026-04-14 22:41 | -40.60667 | -73.06335 | 215 ft | 20 kts | 335° |
| 2026-04-14 22:42 | -40.60562 | -73.06398 | 220 ft | 11 kts | 338° |
| 2026-04-14 22:42 | -40.60500 | -73.06374 | 222 ft | 9 kts | 51° |
| 2026-04-14 22:42 | -40.60473 | -73.06303 | 215 ft | 8 kts | 65° |
| 2026-04-14 22:42 | -40.60450 | -73.06238 | 215 ft | 7 kts | 65° |
| 2026-04-14 22:43 | -40.60445 | -73.06182 | 212 ft | 5 kts | 104° |
| 2026-04-14 22:43 | -40.60446 | -73.06177 | 212 ft | 0 kts | 103° |